createdAt,value
2018-06-27T00:07:33.339Z,10.4
2018-06-27T00:17:48.727Z,10.3
2018-06-27T00:28:03.196Z,10.1
2018-06-27T00:38:18.806Z,9.8
2018-06-27T00:48:33.015Z,9.7
2018-06-27T00:58:47.132Z,9.8
2018-06-27T01:09:02.661Z,10
2018-06-27T01:19:17.231Z,9.9
2018-06-27T01:29:31.463Z,9.8
2018-06-27T01:39:45.727Z,9.7
2018-06-27T01:50:00.336Z,10.2
2018-06-27T02:00:15.760Z,10.1
2018-06-27T02:10:30.402Z,10.4
2018-06-27T02:20:45.044Z,10.6
2018-06-27T02:31:00.507Z,10.3
2018-06-27T02:41:16.398Z,10.3
2018-06-27T02:51:29.557Z,10.3
2018-06-27T03:01:43.295Z,10.5
2018-06-27T03:11:58.298Z,10.6
2018-06-27T03:22:12.185Z,10.6
2018-06-27T03:32:26.619Z,10.1
2018-06-27T03:42:40.452Z,10
2018-06-27T03:52:55.360Z,9.9
2018-06-27T04:03:10.299Z,10.6
2018-06-27T04:13:24.692Z,10.3
2018-06-27T04:23:38.587Z,10.6
2018-06-27T04:33:54.292Z,11.3
2018-06-27T04:44:08.639Z,11.4
2018-06-27T04:54:23.721Z,11.8
2018-06-27T05:04:37.515Z,11.8
2018-06-27T05:14:51.224Z,12.3
2018-06-27T05:25:05.281Z,12.6
2018-06-27T05:35:19.274Z,12.9
2018-06-27T05:45:34.622Z,12.9
2018-06-27T05:55:50.053Z,13.3
2018-06-27T06:06:04.489Z,13.6
2018-06-27T06:16:18.340Z,14.5
2018-06-27T06:26:33.975Z,15.6
2018-06-27T06:36:49.599Z,16.8
2018-06-27T06:47:04.541Z,17.7
2018-06-27T06:57:19.687Z,18.7
2018-06-27T07:07:35.323Z,19
2018-06-27T07:17:50.475Z,19.6
2018-06-27T07:28:05.076Z,19.8
2018-06-27T07:38:20.605Z,20.6
2018-06-27T07:48:36.097Z,21.2
2018-06-27T07:58:50.551Z,21.6
2018-06-27T08:09:04.621Z,22.6
2018-06-27T08:19:19.184Z,23.3
2018-06-27T08:29:33.821Z,23.7
2018-06-27T08:39:48.962Z,23.4
2018-06-27T08:50:04.591Z,24.5
2018-06-27T09:00:18.932Z,24.9
2018-06-27T09:10:34.729Z,24.9
2018-06-27T09:20:49.278Z,25.6
2018-06-27T09:31:03.601Z,25.5
2018-06-27T09:41:18.677Z,25.6
2018-06-27T09:51:33.362Z,26.2
2018-06-27T10:01:48.524Z,26.8
2018-06-27T10:12:03.422Z,25.8
2018-06-27T10:22:17.561Z,26.8
2018-06-27T10:32:33.192Z,27.6
2018-06-27T10:42:49.168Z,27.2
2018-06-27T10:53:04.652Z,27
2018-06-27T11:03:19.360Z,27
2018-06-27T11:13:34.783Z,27.9
2018-06-27T11:23:48.819Z,26.7
2018-06-27T11:34:03.793Z,27.1
2018-06-27T11:44:17.671Z,26.9
2018-06-27T11:54:33.217Z,25.9
2018-06-27T12:04:47.281Z,28.8
2018-06-27T12:15:03.181Z,26.8
2018-06-27T12:25:18.632Z,26.6
2018-06-27T12:35:35.267Z,26.5
2018-06-27T12:45:49.728Z,28
2018-06-27T12:56:05.414Z,27.8
2018-06-27T13:06:19.410Z,28
2018-06-27T13:16:33.610Z,27.1
2018-06-27T13:26:48.119Z,28.2
2018-06-27T13:37:03.134Z,28
2018-06-27T13:47:17.638Z,27.3
2018-06-27T13:57:32.451Z,26.7
2018-06-27T14:07:47.243Z,28.3
2018-06-27T14:18:01.308Z,27.4
2018-06-27T14:28:15.274Z,28.4
2018-06-27T14:38:29.967Z,28.5
2018-06-27T14:48:45.059Z,26.1
2018-06-27T14:58:59.528Z,27.2
2018-06-27T15:09:14.058Z,28
2018-06-27T15:19:29.033Z,27.6
2018-06-27T15:29:43.881Z,26.8
2018-06-27T15:39:57.980Z,28.2
2018-06-27T15:50:12.917Z,28.1
2018-06-27T16:00:27.046Z,27
2018-06-27T16:10:42.188Z,26.8
2018-06-27T16:20:57.721Z,28.3
2018-06-27T16:31:12.081Z,28.9
2018-06-27T16:41:26.058Z,28.1
2018-06-27T16:51:41.718Z,27.9
2018-06-27T17:01:55.742Z,28
2018-06-27T17:12:11.607Z,27.7
2018-06-27T17:22:27.411Z,25.6
2018-06-27T17:32:41.777Z,25.4
2018-06-27T17:42:57.108Z,25.7
2018-06-27T17:53:12.459Z,24.6
2018-06-27T18:03:28.007Z,24.2
2018-06-27T18:13:41.893Z,23.5
2018-06-27T18:23:56.569Z,23.1
2018-06-27T18:34:12.267Z,22.6
2018-06-27T18:44:27.759Z,22.1
2018-06-27T18:54:42.102Z,22
2018-06-27T19:04:57.893Z,21.1
2018-06-27T19:15:13.055Z,20.7
2018-06-27T19:25:27.855Z,20.4
2018-06-27T19:35:43.353Z,19.7
2018-06-27T19:45:57.570Z,18.9
2018-06-27T19:56:11.848Z,17.8
2018-06-27T20:06:27.022Z,17.7
2018-06-27T20:16:40.838Z,17
2018-06-27T20:26:55.258Z,17.4
2018-06-27T20:37:08.984Z,16.9
2018-06-27T20:47:24.227Z,16.4
2018-06-27T20:57:38.024Z,16.5
2018-06-27T21:07:52.997Z,16.3
2018-06-27T21:18:07.947Z,15.6
2018-06-27T21:28:22.831Z,15.4
2018-06-27T21:38:36.648Z,15.4
2018-06-27T21:48:52.281Z,15.3
2018-06-27T21:59:07.763Z,15
2018-06-27T22:09:23.098Z,14.7
2018-06-27T22:19:37.337Z,14.7
2018-06-27T22:29:52.796Z,14.4
2018-06-27T22:40:08.449Z,15.6
2018-06-27T22:50:22.446Z,15.4
2018-06-27T23:00:36.827Z,16.2
2018-06-27T23:10:51.329Z,15.2
2018-06-27T23:21:05.480Z,14.9
2018-06-27T23:31:20.043Z,15.4
2018-06-27T23:41:34.352Z,16.1
2018-06-27T23:51:48.857Z,16.5
